createdAt,value
2023-11-30T00:01:29.678Z,16.10
2023-11-30T00:03:57.676Z,14.60
2023-11-30T00:06:26.186Z,21.20
2023-11-30T00:08:54.740Z,24.60
2023-11-30T00:11:22.562Z,14.90
2023-11-30T00:13:50.371Z,13.50
2023-11-30T00:16:18.198Z,14.50
2023-11-30T00:18:45.937Z,15.50
2023-11-30T00:21:13.937Z,13.20
2023-11-30T00:23:41.623Z,13.00
2023-11-30T00:26:09.472Z,8.60
2023-11-30T00:28:37.383Z,13.30
2023-11-30T00:31:05.690Z,11.70
2023-11-30T00:33:33.466Z,12.40
2023-11-30T00:36:01.446Z,7.90
2023-11-30T00:38:29.518Z,14.90
2023-11-30T00:40:57.247Z,14.60
2023-11-30T00:43:24.999Z,16.00
2023-11-30T00:46:03.229Z,20.00
2023-11-30T00:48:38.242Z,18.80
2023-11-30T00:51:10.050Z,19.80
2023-11-30T00:53:39.237Z,15.20
2023-11-30T00:56:07.793Z,14.30
2023-11-30T00:58:35.820Z,16.30
2023-11-30T01:01:03.737Z,16.70
2023-11-30T01:03:31.671Z,13.50
2023-11-30T01:05:59.590Z,12.20
2023-11-30T01:08:27.290Z,12.60
2023-11-30T01:10:55.045Z,12.70
2023-11-30T01:13:22.805Z,13.10
2023-11-30T01:15:50.892Z,13.70
2023-11-30T01:18:19.130Z,10.40
2023-11-30T01:20:46.995Z,12.30
2023-11-30T01:23:14.819Z,12.20
2023-11-30T01:25:42.624Z,8.30
2023-11-30T01:28:10.354Z,8.10
2023-11-30T01:30:38.382Z,8.70
2023-11-30T01:33:06.221Z,12.30
2023-11-30T01:35:33.967Z,9.00
2023-11-30T01:38:01.701Z,8.30
2023-11-30T01:40:29.493Z,13.40
2023-11-30T01:42:57.299Z,14.20
2023-11-30T01:45:26.297Z,11.50
2023-11-30T01:47:54.178Z,19.20
2023-11-30T01:50:23.576Z,21.90
2023-11-30T01:52:51.534Z,12.90
2023-11-30T01:55:19.695Z,12.00
2023-11-30T01:57:47.685Z,12.50
2023-11-30T02:00:16.930Z,12.80
2023-11-30T02:02:45.441Z,13.10
2023-11-30T02:05:13.385Z,9.50
2023-11-30T02:07:41.150Z,11.80
2023-11-30T02:10:09.494Z,9.00
2023-11-30T02:12:37.495Z,9.30
2023-11-30T02:15:05.849Z,8.90
2023-11-30T02:17:33.690Z,14.80
2023-11-30T02:20:01.563Z,16.30
2023-11-30T02:22:29.459Z,18.90
2023-11-30T02:24:57.152Z,20.70
2023-11-30T02:27:24.970Z,15.50
2023-11-30T02:29:53.029Z,12.30
2023-11-30T02:32:21.730Z,10.60
2023-11-30T02:34:49.441Z,10.50
2023-11-30T02:37:17.236Z,9.70
2023-11-30T02:39:45.015Z,8.70
2023-11-30T02:42:13.353Z,11.40
2023-11-30T02:44:41.098Z,9.90
2023-11-30T02:47:08.837Z,12.90
2023-11-30T02:49:36.828Z,10.80
2023-11-30T02:52:05.448Z,13.70
2023-11-30T02:54:33.335Z,14.60
2023-11-30T02:57:02.384Z,17.10
2023-11-30T02:59:32.016Z,21.10
2023-11-30T03:02:00.004Z,22.30
2023-11-30T03:04:27.927Z,11.10
2023-11-30T03:06:55.749Z,13.90
2023-11-30T03:09:23.523Z,12.70
2023-11-30T03:11:52.395Z,11.90
2023-11-30T03:14:20.989Z,10.00
2023-11-30T03:16:48.789Z,11.80
2023-11-30T03:19:17.599Z,11.00
2023-11-30T03:21:45.653Z,11.50
2023-11-30T03:24:14.232Z,11.30
2023-11-30T03:26:42.822Z,11.50
2023-11-30T03:29:11.064Z,11.70
2023-11-30T03:31:40.816Z,11.70
2023-11-30T03:34:09.110Z,15.10
2023-11-30T03:36:37.005Z,17.30
2023-11-30T03:39:05.654Z,20.10
2023-11-30T03:41:33.433Z,15.70
2023-11-30T03:44:02.777Z,13.00
2023-11-30T03:46:31.097Z,12.80
2023-11-30T03:48:59.079Z,8.50
2023-11-30T03:51:26.858Z,11.20
2023-11-30T03:53:54.715Z,10.20
2023-11-30T03:56:22.608Z,9.40
2023-11-30T04:01:24.228Z,10.90
2023-11-30T04:03:52.121Z,10.00
2023-11-30T04:06:21.455Z,10.60
2023-11-30T04:08:53.254Z,12.50
2023-11-30T04:11:21.494Z,16.20
2023-11-30T04:13:49.361Z,22.40
2023-11-30T04:16:18.238Z,23.50
2023-11-30T04:18:46.155Z,10.70
2023-11-30T04:21:14.761Z,11.20
2023-11-30T04:23:42.562Z,10.20
2023-11-30T04:26:11.092Z,13.40
2023-11-30T04:28:39.026Z,12.00
2023-11-30T04:31:08.401Z,10.70
2023-11-30T04:33:36.219Z,11.40
2023-11-30T04:36:04.686Z,8.80
2023-11-30T04:38:32.719Z,11.30
2023-11-30T04:41:00.755Z,10.60
2023-11-30T04:43:28.566Z,10.00
2023-11-30T04:45:56.383Z,15.20
2023-11-30T04:48:24.139Z,16.80
2023-11-30T04:50:52.512Z,17.80
2023-11-30T04:53:20.400Z,18.90
2023-11-30T04:55:48.157Z,13.80
2023-11-30T04:58:15.955Z,13.30
2023-11-30T05:00:43.704Z,13.40
2023-11-30T05:03:13.098Z,12.50
2023-11-30T05:05:41.216Z,13.10
2023-11-30T05:08:09.354Z,14.10
2023-11-30T05:10:37.430Z,12.10
2023-11-30T05:13:05.162Z,12.70
2023-11-30T05:15:32.931Z,10.20
2023-11-30T05:18:00.753Z,13.30
2023-11-30T05:20:29.766Z,12.80
2023-11-30T05:22:57.469Z,17.40
2023-11-30T05:25:25.522Z,17.20
2023-11-30T05:27:53.294Z,17.70
2023-11-30T05:30:21.621Z,9.90
2023-11-30T05:32:50.052Z,9.40
2023-11-30T05:35:18.021Z,9.10
2023-11-30T05:37:47.236Z,11.40
2023-11-30T05:40:17.244Z,9.00
2023-11-30T05:42:44.958Z,9.90
2023-11-30T05:45:12.801Z,9.20
2023-11-30T05:47:40.683Z,9.10
2023-11-30T05:50:09.030Z,7.00
2023-11-30T05:52:37.086Z,10.60
2023-11-30T05:55:09.001Z,16.60
2023-11-30T05:57:38.319Z,13.60
2023-11-30T06:00:09.677Z,14.50
2023-11-30T06:02:40.765Z,12.20
2023-11-30T06:05:08.982Z,10.00
2023-11-30T06:07:38.680Z,8.60
2023-11-30T06:10:11.140Z,8.90
2023-11-30T06:12:40.616Z,7.70
2023-11-30T06:15:10.839Z,5.90
2023-11-30T06:17:38.998Z,5.40
2023-11-30T06:20:11.762Z,9.40
2023-11-30T06:22:41.242Z,12.00
2023-11-30T06:25:10.247Z,12.30
2023-11-30T06:27:38.358Z,12.70
2023-11-30T06:30:07.115Z,10.30
2023-11-30T06:32:35.103Z,11.20
2023-11-30T06:35:03.535Z,9.00
2023-11-30T06:37:31.439Z,10.40
2023-11-30T06:39:59.278Z,8.40
2023-11-30T06:42:27.059Z,9.10
2023-11-30T06:44:54.966Z,10.40
2023-11-30T06:47:22.714Z,9.50
2023-11-30T06:49:51.329Z,9.10
2023-11-30T06:52:19.419Z,9.60
2023-11-30T06:54:47.221Z,9.80
2023-11-30T06:57:15.229Z,11.80
2023-11-30T06:59:44.470Z,11.10
2023-11-30T07:02:12.470Z,10.70
2023-11-30T07:04:40.563Z,13.60
2023-11-30T07:07:10.090Z,13.80
2023-11-30T07:09:40.808Z,9.10
2023-11-30T07:12:09.342Z,10.80
2023-11-30T07:14:50.471Z,10.90
2023-11-30T07:17:24.587Z,10.60
2023-11-30T07:19:53.276Z,10.00
2023-11-30T07:22:23.398Z,8.10
2023-11-30T07:24:52.079Z,10.50
2023-11-30T07:27:20.504Z,11.00
2023-11-30T07:29:48.541Z,12.30
2023-11-30T07:32:16.929Z,10.00
2023-11-30T07:34:45.799Z,11.50
2023-11-30T07:37:17.113Z,11.80
2023-11-30T07:39:45.466Z,10.30
2023-11-30T07:42:25.881Z,12.60
2023-11-30T07:45:03.220Z,10.50
2023-11-30T07:47:31.978Z,11.60
2023-11-30T07:50:00.546Z,12.50
2023-11-30T07:52:28.481Z,10.60
2023-11-30T07:54:56.257Z,10.40
2023-11-30T07:57:25.029Z,9.70
2023-11-30T07:59:52.941Z,10.30
2023-11-30T08:02:20.723Z,13.00
2023-11-30T08:04:48.540Z,10.80
2023-11-30T08:07:16.354Z,11.30
2023-11-30T08:09:44.122Z,12.90
2023-11-30T08:12:12.007Z,9.70
2023-11-30T08:14:40.053Z,10.10
2023-11-30T08:17:07.977Z,8.90
2023-11-30T08:19:35.822Z,9.70
2023-11-30T08:22:03.666Z,9.20
2023-11-30T08:24:31.538Z,9.20
2023-11-30T08:27:00.748Z,9.00
2023-11-30T08:29:28.530Z,10.00
2023-11-30T08:31:56.907Z,7.20
2023-11-30T08:34:24.790Z,7.90
2023-11-30T08:36:52.563Z,11.60
2023-11-30T08:39:24.707Z,16.40
2023-11-30T08:41:54.480Z,14.10
2023-11-30T08:44:24.070Z,13.40
2023-11-30T08:46:52.131Z,10.40
2023-11-30T08:49:20.139Z,8.80
2023-11-30T08:51:48.019Z,10.50
2023-11-30T08:54:15.861Z,9.20
2023-11-30T08:56:43.703Z,9.20
2023-11-30T08:59:11.590Z,9.30
2023-11-30T09:01:39.638Z,7.50
2023-11-30T09:04:09.893Z,10.10
2023-11-30T09:06:37.996Z,11.50
2023-11-30T09:09:05.886Z,9.40
2023-11-30T09:11:35.221Z,10.00
2023-11-30T09:14:03.456Z,8.50
2023-11-30T09:16:31.347Z,9.00
2023-11-30T09:18:59.150Z,8.10
2023-11-30T09:21:28.150Z,7.40
2023-11-30T09:23:57.178Z,6.40
2023-11-30T09:26:25.099Z,7.20
2023-11-30T09:28:52.997Z,9.20
2023-11-30T09:31:21.422Z,9.30
2023-11-30T09:50:03.995Z,7.20
2023-11-30T09:52:32.973Z,8.50
2023-11-30T09:55:00.836Z,6.60
2023-11-30T09:57:28.607Z,6.80
2023-11-30T09:59:56.468Z,11.00
2023-11-30T10:02:25.368Z,12.50
2023-11-30T10:04:53.254Z,8.70
2023-11-30T10:07:22.126Z,6.80
2023-11-30T10:09:50.033Z,7.70
2023-11-30T10:12:21.232Z,7.50
2023-11-30T10:14:49.137Z,6.80
2023-11-30T10:17:17.437Z,7.40
2023-11-30T10:19:45.347Z,6.60
2023-11-30T10:22:13.727Z,6.70
2023-11-30T10:24:41.504Z,6.50
2023-11-30T10:27:11.604Z,9.00
2023-11-30T10:29:43.128Z,9.40
2023-11-30T10:32:14.287Z,8.70
2023-11-30T10:34:47.955Z,8.00
2023-11-30T10:37:21.098Z,6.50
2023-11-30T10:40:01.699Z,8.10
2023-11-30T10:42:33.559Z,7.30
2023-11-30T10:45:04.571Z,8.10
2023-11-30T10:47:33.078Z,7.80
2023-11-30T10:50:01.678Z,7.50
2023-11-30T10:52:30.076Z,6.70
2023-11-30T10:55:05.159Z,7.80
2023-11-30T10:57:33.022Z,6.70
2023-11-30T11:00:01.013Z,8.00
2023-11-30T11:02:39.510Z,7.70
2023-11-30T11:05:18.271Z,8.90
2023-11-30T11:07:50.710Z,7.80
2023-11-30T11:10:29.685Z,9.00
2023-11-30T11:13:01.250Z,8.40
2023-11-30T11:15:30.220Z,7.30
2023-11-30T11:18:07.039Z,8.10
2023-11-30T11:20:38.142Z,5.40
2023-11-30T11:23:09.817Z,6.80
2023-11-30T11:25:42.220Z,7.40
2023-11-30T11:28:11.637Z,7.60
2023-11-30T11:30:44.874Z,8.50
2023-11-30T11:33:15.833Z,7.20
2023-11-30T11:35:43.743Z,7.40
2023-11-30T11:38:11.811Z,8.50
2023-11-30T11:40:40.889Z,7.30
2023-11-30T11:43:09.438Z,7.00
2023-11-30T11:45:42.306Z,7.60
2023-11-30T11:48:12.062Z,8.90
2023-11-30T11:53:07.884Z,8.90
2023-11-30T11:55:36.203Z,6.20
2023-11-30T11:58:03.990Z,7.70
2023-11-30T12:00:31.870Z,7.10
2023-11-30T12:03:07.527Z,7.40
2023-11-30T12:05:35.566Z,7.60
2023-11-30T12:08:04.374Z,7.40
2023-11-30T12:10:48.168Z,7.10
2023-11-30T12:13:16.300Z,6.70
2023-11-30T12:15:45.996Z,7.40
2023-11-30T12:18:14.982Z,5.80
2023-11-30T12:20:44.477Z,6.70
2023-11-30T12:23:13.853Z,8.10
2023-11-30T12:25:41.720Z,7.80
2023-11-30T12:28:09.541Z,8.60
2023-11-30T12:30:37.417Z,8.60
2023-11-30T12:33:05.243Z,9.10
2023-11-30T12:35:35.593Z,8.10
2023-11-30T12:38:03.972Z,6.90
2023-11-30T12:40:31.734Z,7.80
2023-11-30T12:42:59.969Z,6.00
2023-11-30T12:45:28.791Z,6.70
2023-11-30T12:47:57.075Z,6.40
2023-11-30T12:50:25.057Z,5.10
2023-11-30T12:52:53.071Z,6.10
2023-11-30T12:55:21.087Z,8.50
2023-11-30T12:57:48.967Z,6.00
2023-11-30T13:00:21.893Z,6.60
2023-11-30T13:02:49.971Z,8.50
2023-11-30T13:05:18.043Z,8.30
2023-11-30T13:07:46.535Z,8.80
2023-11-30T13:10:14.473Z,8.20
2023-11-30T13:12:43.093Z,8.40
2023-11-30T13:15:12.928Z,7.30
2023-11-30T13:17:41.490Z,6.70
2023-11-30T13:20:14.471Z,5.80
2023-11-30T13:22:45.327Z,5.80
2023-11-30T13:25:15.243Z,6.60
2023-11-30T13:27:47.661Z,5.90
2023-11-30T13:30:18.595Z,5.60
2023-11-30T13:32:47.748Z,6.50
2023-11-30T13:35:16.035Z,7.50
2023-11-30T13:37:44.189Z,7.50
2023-11-30T13:40:12.441Z,6.30
2023-11-30T13:42:40.448Z,7.80
2023-11-30T13:45:08.778Z,8.20
2023-11-30T13:47:36.673Z,7.30
2023-11-30T13:50:08.303Z,8.30
2023-11-30T13:55:08.145Z,8.10
2023-11-30T13:57:37.021Z,8.10
2023-11-30T14:00:06.875Z,7.90
2023-11-30T14:05:06.235Z,7.20
2023-11-30T14:07:34.901Z,9.20
2023-11-30T14:10:03.302Z,8.70
2023-11-30T14:12:31.162Z,7.80
2023-11-30T14:14:59.023Z,8.40
2023-11-30T14:17:26.886Z,7.50
2023-11-30T14:19:54.665Z,7.20
2023-11-30T14:22:22.807Z,7.80
2023-11-30T14:24:50.724Z,8.00
2023-11-30T14:27:18.993Z,8.40
2023-11-30T14:29:46.739Z,8.10
2023-11-30T14:32:14.483Z,8.60
2023-11-30T14:34:42.321Z,9.00
2023-11-30T14:37:10.039Z,9.20
2023-11-30T14:39:37.952Z,9.30
2023-11-30T14:42:06.921Z,9.20
2023-11-30T14:44:36.168Z,9.20
2023-11-30T14:47:11.035Z,9.70
2023-11-30T14:49:39.227Z,9.50
2023-11-30T14:52:07.616Z,9.80
2023-11-30T14:54:35.935Z,9.70
2023-11-30T14:57:07.454Z,9.50
2023-11-30T14:59:35.761Z,9.50
2023-11-30T15:02:04.391Z,10.30
2023-11-30T15:04:32.773Z,11.60
2023-11-30T15:07:01.316Z,10.40
2023-11-30T15:09:29.676Z,11.20
2023-11-30T15:11:57.655Z,12.70
2023-11-30T15:14:25.567Z,12.80
2023-11-30T15:16:55.670Z,13.60
2023-11-30T15:19:23.520Z,13.50
2023-11-30T15:21:51.536Z,13.90
2023-11-30T15:24:19.615Z,14.00
2023-11-30T15:26:48.769Z,15.30
2023-11-30T15:29:17.806Z,14.90
2023-11-30T15:31:45.681Z,15.30
2023-11-30T15:34:13.614Z,16.00
2023-11-30T15:36:43.079Z,16.80
2023-11-30T15:39:18.177Z,16.70
2023-11-30T15:41:51.258Z,15.20
2023-11-30T15:44:19.144Z,17.70
2023-11-30T15:46:47.414Z,16.50
2023-11-30T15:49:15.831Z,17.50
2023-11-30T15:51:44.093Z,18.10
2023-11-30T15:54:11.966Z,18.90
2023-11-30T15:56:39.785Z,16.20
2023-11-30T15:59:07.600Z,14.90
2023-11-30T16:01:35.473Z,16.50
2023-11-30T16:04:04.399Z,16.40
2023-11-30T16:06:34.712Z,18.40
2023-11-30T16:09:03.958Z,20.40
2023-11-30T16:11:31.845Z,18.50
2023-11-30T16:13:59.848Z,16.10
2023-11-30T16:16:28.931Z,17.50
2023-11-30T16:18:58.241Z,18.60
2023-11-30T16:21:28.541Z,19.80
2023-11-30T16:23:56.711Z,17.70
2023-11-30T16:26:27.594Z,20.90
2023-11-30T16:28:55.446Z,19.40
2023-11-30T16:31:23.270Z,18.80
2023-11-30T16:33:52.733Z,18.50
2023-11-30T16:38:49.038Z,18.10
2023-11-30T16:41:18.268Z,17.90
2023-11-30T16:43:46.377Z,17.30
2023-11-30T16:46:14.345Z,17.00
2023-11-30T16:48:45.166Z,15.10
2023-11-30T16:51:13.317Z,19.50
2023-11-30T16:53:41.151Z,25.10
2023-11-30T16:56:09.947Z,18.50
2023-11-30T16:58:37.738Z,16.60
2023-11-30T17:01:08.466Z,17.60
2023-11-30T17:03:36.343Z,15.50
2023-11-30T17:06:04.851Z,14.80
2023-11-30T17:08:32.799Z,16.80
2023-11-30T17:11:00.837Z,12.20
2023-11-30T17:13:28.714Z,11.80
2023-11-30T17:15:57.279Z,14.80
2023-11-30T17:18:25.464Z,16.50
2023-11-30T17:20:53.384Z,17.20
2023-11-30T17:23:21.266Z,12.90
2023-11-30T17:25:49.123Z,15.00
2023-11-30T17:28:16.970Z,12.90
2023-11-30T17:30:44.860Z,16.60
2023-11-30T17:33:13.298Z,15.40
2023-11-30T17:35:41.815Z,16.70
2023-11-30T17:38:09.734Z,20.20
2023-11-30T17:40:37.573Z,23.30
2023-11-30T17:43:05.447Z,23.00
2023-11-30T17:45:33.268Z,22.00
2023-11-30T17:48:04.793Z,16.40
2023-11-30T17:50:33.149Z,16.80
2023-11-30T17:53:02.202Z,17.10
2023-11-30T17:55:31.960Z,17.40
2023-11-30T17:57:59.762Z,18.00
2023-11-30T18:00:30.230Z,17.90
2023-11-30T18:02:59.522Z,19.80
2023-11-30T18:05:27.449Z,16.60
2023-11-30T18:07:55.325Z,18.00
2023-11-30T18:10:23.163Z,23.00
2023-11-30T18:12:51.068Z,24.20
2023-11-30T18:15:18.972Z,20.90
2023-11-30T18:17:46.990Z,17.70
2023-11-30T18:20:14.900Z,17.70
2023-11-30T18:25:36.270Z,17.00
2023-11-30T18:28:04.418Z,17.70
2023-11-30T18:30:32.175Z,17.40
2023-11-30T18:33:00.016Z,17.80
2023-11-30T18:35:27.738Z,19.90
2023-11-30T18:37:55.617Z,23.10
2023-11-30T18:40:23.513Z,23.20
2023-11-30T18:42:53.577Z,22.40
2023-11-30T18:45:21.711Z,19.50
2023-11-30T18:47:49.677Z,18.80
2023-11-30T18:50:17.775Z,21.10
2023-11-30T18:52:45.571Z,19.90
2023-11-30T18:55:13.482Z,18.20
2023-11-30T18:57:41.389Z,17.00
2023-11-30T19:00:09.645Z,17.50
2023-11-30T19:02:37.459Z,19.60
2023-11-30T19:05:08.715Z,22.60
2023-11-30T19:07:37.188Z,26.10
2023-11-30T19:10:05.716Z,20.80
2023-11-30T19:12:33.674Z,19.80
2023-11-30T19:15:02.172Z,19.70
2023-11-30T19:17:30.102Z,20.30
2023-11-30T19:19:57.933Z,22.30
2023-11-30T19:22:26.862Z,21.80
2023-11-30T19:24:55.037Z,23.40
2023-11-30T19:27:23.449Z,21.60
2023-11-30T19:29:52.569Z,20.80
2023-11-30T19:32:20.776Z,21.40
2023-11-30T19:34:48.752Z,21.20
2023-11-30T19:37:16.606Z,20.50
2023-11-30T19:39:44.476Z,19.10
2023-11-30T19:42:12.349Z,19.30
2023-11-30T19:44:40.642Z,21.40
2023-11-30T19:47:09.217Z,20.10
2023-11-30T19:49:37.043Z,19.80
2023-11-30T19:52:05.113Z,20.20
2023-11-30T19:54:32.969Z,19.90
2023-11-30T19:57:00.769Z,21.50
2023-11-30T19:59:28.603Z,37.20
2023-11-30T20:01:58.609Z,44.60
2023-11-30T20:04:26.585Z,30.20
2023-11-30T20:06:54.429Z,33.60
2023-11-30T20:09:24.226Z,29.00
2023-11-30T20:11:52.081Z,25.00
2023-11-30T20:14:19.930Z,23.50
2023-11-30T20:16:47.915Z,24.00
2023-11-30T20:19:16.266Z,23.80
2023-11-30T20:21:44.288Z,25.20
2023-11-30T20:24:12.135Z,25.30
2023-11-30T20:26:41.933Z,23.60
2023-11-30T20:29:09.799Z,22.90
2023-11-30T20:31:37.817Z,23.70
2023-11-30T20:34:05.710Z,23.70
2023-11-30T20:36:33.912Z,22.30
2023-11-30T20:39:02.105Z,22.20
2023-11-30T20:41:29.839Z,21.60
2023-11-30T20:43:57.834Z,20.20
2023-11-30T20:46:25.684Z,24.70
2023-11-30T20:48:55.322Z,22.50
2023-11-30T20:51:23.178Z,20.80
2023-11-30T20:53:51.015Z,22.10
2023-11-30T20:56:19.063Z,20.80
2023-11-30T20:58:49.458Z,21.00
2023-11-30T21:01:18.664Z,19.70
2023-11-30T21:03:46.874Z,20.20
2023-11-30T21:06:14.746Z,20.40
2023-11-30T21:08:42.634Z,19.90
2023-11-30T21:11:11.605Z,19.80
2023-11-30T21:13:39.423Z,19.40
2023-11-30T21:16:07.819Z,19.50
2023-11-30T21:18:35.741Z,19.20
2023-11-30T21:21:03.757Z,22.30
2023-11-30T21:23:31.532Z,23.30
2023-11-30T21:25:59.211Z,20.80
2023-11-30T21:28:26.922Z,20.30
2023-11-30T21:30:54.754Z,19.30
2023-11-30T21:33:22.502Z,20.60
2023-11-30T21:35:50.434Z,21.80
2023-11-30T21:38:18.145Z,20.70
2023-11-30T21:40:46.543Z,19.80
2023-11-30T21:43:14.274Z,20.30
2023-11-30T21:45:42.077Z,19.00
2023-11-30T21:48:10.362Z,19.90
2023-11-30T21:50:38.230Z,21.20
2023-11-30T21:53:06.106Z,20.10
2023-11-30T21:55:33.881Z,19.20
2023-11-30T21:58:01.753Z,21.30
2023-11-30T22:00:29.702Z,20.80
2023-11-30T22:02:58.010Z,19.80
2023-11-30T22:05:30.994Z,18.90
2023-11-30T22:08:04.473Z,20.60
2023-11-30T22:10:32.254Z,19.60
2023-11-30T22:13:00.101Z,20.60
2023-11-30T22:15:27.969Z,18.40
2023-11-30T22:17:57.660Z,18.40
2023-11-30T22:20:25.592Z,19.00
2023-11-30T22:22:53.401Z,18.70
2023-11-30T22:25:21.950Z,18.50
2023-11-30T22:27:49.769Z,18.30
2023-11-30T22:30:17.592Z,18.90
2023-11-30T22:32:45.469Z,19.80
2023-11-30T22:35:13.439Z,18.50
2023-11-30T22:37:41.235Z,18.00
2023-11-30T22:40:09.581Z,18.50
2023-11-30T22:42:37.728Z,19.10
2023-11-30T22:45:06.790Z,18.60
2023-11-30T22:47:36.616Z,18.80
2023-11-30T22:52:32.987Z,18.70
2023-11-30T22:55:01.593Z,18.50
2023-11-30T22:57:29.592Z,19.30
2023-11-30T22:59:57.418Z,18.30
2023-11-30T23:02:28.153Z,20.80
2023-11-30T23:04:58.718Z,18.70
2023-11-30T23:07:26.699Z,19.50
2023-11-30T23:09:54.442Z,19.60
2023-11-30T23:12:22.314Z,19.60
2023-11-30T23:14:50.016Z,20.00
2023-11-30T23:17:19.561Z,21.50
2023-11-30T23:19:47.842Z,19.20
2023-11-30T23:22:15.862Z,20.90
2023-11-30T23:24:43.885Z,22.10
2023-11-30T23:27:11.645Z,20.00
2023-11-30T23:29:41.298Z,21.50
2023-11-30T23:32:09.072Z,19.40
2023-11-30T23:34:36.768Z,22.20
2023-11-30T23:37:04.601Z,22.90
2023-11-30T23:39:32.510Z,21.80
2023-11-30T23:42:00.289Z,21.90
2023-11-30T23:44:27.986Z,20.30
2023-11-30T23:46:55.771Z,21.80
2023-11-30T23:49:23.531Z,23.60
2023-11-30T23:51:51.333Z,22.20
2023-11-30T23:54:19.151Z,22.00
2023-11-30T23:56:48.092Z,23.50
2023-11-30T23:59:15.931Z,21.30
